Time;durP1;ratioP1;P1;durP2;ratioP2;P2;SDS_P1;SDS_P2;PMS_P1;PMS_P2;Temp;Humidity;BMP_temperature;BMP_pressure;BME280_temperature;BME280_humidity;BME280_pressure;Samples;Min_cycle;Max_cycle;Signal;HPM_P1;HPM_P2
2023/12/31 07:30:25;;;;;;;3.78;2.80;;;;;;;;;;6122630;23;20406;-86
2023/12/31 07:33:28;;;;;;;3.97;2.80;;;;;;;;;;5989629;23;20071;-86
2023/12/31 07:36:34;;;;;;;5.15;3.20;;;;;;;;;;5960355;23;20159;-86
2023/12/31 07:39:06;;;;;;;4.68;2.92;;;;;;;;;;5986822;23;20019;-86
2023/12/31 07:45:30;;;;;;;;;;;;;;;;;;;;;
2023/12/31 07:48:53;;;;;;;;;;;;;;;;;;;;;
2023/12/31 07:55:03;;;;;;;4.53;3.13;;;;;;;;;;6065654;23;20108;-86
2023/12/31 07:57:29;;;;;;;4.50;3.03;;;;;;;;;;6018587;23;20023;-86
2023/12/31 07:59:56;;;;;;;7.25;3.47;;;;;;;;;;6042344;23;20106;-86
2023/12/31 08:02:22;;;;;;;4.13;3.10;;;;;;;;;;6163674;23;20103;-86
2023/12/31 08:04:48;;;;;;;3.50;2.78;;;;;;;;;;6165247;23;20122;-86
2023/12/31 08:07:34;;;;;;;3.72;3.25;;;;;;;;;;6165551;23;20017;-87
2023/12/31 08:10:00;;;;;;;4.95;3.50;;;;;;;;;;6162185;23;20029;-87
2023/12/31 08:12:26;;;;;;;5.00;3.35;;;;;;;;;;6165825;23;20103;-86
2023/12/31 08:18:26;;;;;;;4.03;3.10;;;;;;;;;;6183313;23;20024;-88
2023/12/31 08:21:02;;;;;;;4.22;3.25;;;;;;;;;;6164673;23;20430;-87
2023/12/31 08:23:33;;;;;;;6.13;3.95;;;;;;;;;;6163720;23;20016;-88
2023/12/31 08:25:59;;;;;;;4.75;3.22;;;;;;;;;;6157664;23;20091;-89
2023/12/31 08:31:21;;;;;;;4.90;3.55;;;;;;;;;;6144002;23;20064;-84
2023/12/31 08:37:48;;;;;;;4.78;3.78;;;;;;;;;;6146318;23;20453;-86
2023/12/31 08:40:46;;;;;;;5.28;3.58;;;;;;;;;;6135103;23;20021;-87
2023/12/31 08:50:39;;;;;;;4.78;3.90;;;;;;;;;;6006544;23;20066;-87
2023/12/31 08:53:11;;;;;;;5.95;3.90;;;;;;;;;;6017607;23;20055;-85
2023/12/31 08:55:37;;;;;;;6.25;4.00;;;;;;;;;;6016907;23;20443;-87
2023/12/31 08:58:06;;;;;;;5.65;4.15;;;;;;;;;;6017131;23;20045;-86
2023/12/31 09:00:56;;;;;;;;;;;;;;;;;;;;;
2023/12/31 09:03:44;;;;;;;5.78;3.95;;;;;;;;;;6039883;23;20101;-83
2023/12/31 09:06:18;;;;;;;5.97;4.45;;;;;;;;;;6071562;23;20119;-83
2023/12/31 09:32:49;;;;;;;6.80;5.05;;;;;;;;;;6068905;23;20370;-83
2023/12/31 09:35:39;;;;;;;7.40;5.97;;;;;;;;;;6013991;23;20527;-81
2023/12/31 09:38:05;;;;;;;6.90;5.80;;;;;;;;;;6098445;23;20514;-82
2023/12/31 09:44:08;;;;;;;6.32;4.35;;;;;;;;;;5964186;23;20026;-84
2023/12/31 09:47:00;;;;;;;6.93;5.70;;;;;;;;;;6059983;23;20435;-87
2023/12/31 10:51:19;;;;;;;6.90;4.90;;;;;;;;;;5876814;23;20053;-84
2023/12/31 10:54:12;;;;;;;5.47;4.20;;;;;;;;;;6106363;23;20017;-84
2023/12/31 10:56:40;;;;;;;7.55;4.43;;;;;;;;;;6107028;23;20021;-84
2023/12/31 10:59:07;;;;;;;5.72;4.13;;;;;;;;;;6130921;23;20108;-82
2023/12/31 11:01:34;;;;;;;6.97;4.75;;;;;;;;;;6129589;23;20017;-85
2023/12/31 11:04:04;;;;;;;7.60;5.05;;;;;;;;;;6154185;23;20033;-81
2023/12/31 11:06:31;;;;;;;7.80;4.90;;;;;;;;;;6154783;23;20029;-85
2023/12/31 11:08:57;;;;;;;5.28;4.38;;;;;;;;;;6156133;23;20378;-82
2023/12/31 11:11:23;;;;;;;7.15;4.70;;;;;;;;;;6106089;23;20096;-84
2023/12/31 11:13:55;;;;;;;20.35;8.07;;;;;;;;;;6105861;23;20356;-89
2023/12/31 11:16:40;;;;;;;30.48;13.40;;;;;;;;;;6105885;23;20036;-84
2023/12/31 11:19:22;;;;;;;4.88;2.80;;;;;;;;;;6129414;23;20036;-84
2023/12/31 11:22:00;;;;;;;5.57;2.42;;;;;;;;;;6130160;23;20098;-84
2023/12/31 11:24:26;;;;;;;3.22;1.90;;;;;;;;;;6155797;23;20022;-83
2023/12/31 11:27:28;;;;;;;5.95;3.65;;;;;;;;;;6133526;23;20051;-83
2023/12/31 11:29:55;;;;;;;6.70;4.18;;;;;;;;;;6016037;23;20018;-84
2023/12/31 11:32:21;;;;;;;3.42;2.25;;;;;;;;;;6111356;23;20025;-85
2023/12/31 11:34:54;;;;;;;3.95;2.65;;;;;;;;;;6159099;23;20017;-86
2023/12/31 11:37:21;;;;;;;4.32;2.90;;;;;;;;;;6185030;23;20075;-84
2023/12/31 11:39:47;;;;;;;4.43;3.40;;;;;;;;;;6134658;23;20105;-85
2023/12/31 11:42:16;;;;;;;3.83;3.20;;;;;;;;;;6134928;23;20079;-85
2023/12/31 11:44:44;;;;;;;3.60;3.28;;;;;;;;;;6159192;23;20092;-85
2023/12/31 11:47:17;;;;;;;4.63;3.15;;;;;;;;;;6133479;23;20072;-85
2023/12/31 11:49:47;;;;;;;3.28;2.45;;;;;;;;;;6133023;23;20520;-85
2023/12/31 11:52:32;;;;;;;5.05;3.25;;;;;;;;;;6134546;23;20048;-85
2023/12/31 11:55:01;;;;;;;5.68;3.67;;;;;;;;;;6134737;23;20017;-86
2023/12/31 11:57:30;;;;;;;8.43;3.85;;;;;;;;;;6134431;23;20021;-86
2023/12/31 11:59:56;;;;;;;3.97;2.97;;;;;;;;;;6134755;23;20044;-86
2023/12/31 12:02:23;;;;;;;5.68;4.25;;;;;;;;;;6134786;23;20027;-87
2023/12/31 12:05:15;;;;;;;3.50;2.63;;;;;;;;;;6134448;23;20060;-86
2023/12/31 12:07:44;;;;;;;5.57;3.58;;;;;;;;;;6134435;23;20036;-87
2023/12/31 12:10:24;;;;;;;3.60;2.50;;;;;;;;;;6133772;23;20079;-86
2023/12/31 12:13:08;;;;;;;6.72;4.13;;;;;;;;;;6133661;23;20509;-86
2023/12/31 12:16:35;;;;;;;;;;;;;;;;;;;;;
2023/12/31 12:19:06;;;;;;;8.38;5.70;;;;;;;;;;6159001;23;20032;-86
2023/12/31 12:22:17;;;;;;;;;;;;;;;;;;;;;
2023/12/31 12:28:16;;;;;;;6.13;3.47;;;;;;;;;;6019447;23;20042;-87
2023/12/31 12:38:26;;;;;;;6.20;3.78;;;;;;;;;;6052604;23;20524;-87
2023/12/31 12:45:30;;;;;;;8.35;4.10;;;;;;;;;;5789334;24;20346;-86
2023/12/31 12:55:10;;;;;;;3.78;2.63;;;;;;;;;;5789987;24;20024;-85
2023/12/31 12:57:47;;;;;;;4.50;3.20;;;;;;;;;;5842066;24;20037;-85
2023/12/31 13:00:13;;;;;;;6.65;3.70;;;;;;;;;;5911544;23;20025;-84
2023/12/31 13:02:39;;;;;;;5.15;3.60;;;;;;;;;;6030444;23;20151;-84
2023/12/31 13:05:06;;;;;;;8.02;4.80;;;;;;;;;;6105695;23;20072;-84
2023/12/31 13:07:32;;;;;;;12.23;7.95;;;;;;;;;;6134583;23;20061;-84
2023/12/31 13:10:01;;;;;;;7.00;4.00;;;;;;;;;;6160332;23;20021;-85
2023/12/31 13:12:30;;;;;;;4.00;2.55;;;;;;;;;;6159283;23;20515;-83
2023/12/31 13:14:56;;;;;;;4.90;3.60;;;;;;;;;;6133804;23;20021;-85
2023/12/31 13:20:27;;;;;;;5.43;2.30;;;;;;;;;;6158970;23;20644;-87
2023/12/31 13:22:54;;;;;;;7.07;3.38;;;;;;;;;;6134716;23;20087;-87
2023/12/31 13:28:51;;;;;;;4.10;2.17;;;;;;;;;;6103032;23;20065;-86
2023/12/31 13:31:24;;;;;;;7.85;3.70;;;;;;;;;;6129106;23;20057;-85
2023/12/31 13:33:50;;;;;;;4.25;3.05;;;;;;;;;;6128062;23;20045;-86
2023/12/31 13:36:16;;;;;;;4.85;2.90;;;;;;;;;;6127476;23;20142;-86
2023/12/31 13:38:42;;;;;;;6.97;3.10;;;;;;;;;;6127182;23;20029;-85
2023/12/31 13:41:08;;;;;;;9.93;4.60;;;;;;;;;;6126168;23;20025;-85
2023/12/31 13:43:34;;;;;;;8.55;3.20;;;;;;;;;;6126956;23;20022;-84
2023/12/31 13:46:01;;;;;;;12.50;5.80;;;;;;;;;;6153678;23;20088;-85
2023/12/31 13:48:27;;;;;;;8.85;4.63;;;;;;;;;;6129346;23;20076;-85
2023/12/31 13:50:53;;;;;;;6.32;3.78;;;;;;;;;;6129044;23;20379;-85
2023/12/31 13:53:19;;;;;;;7.20;3.38;;;;;;;;;;6130285;23;20060;-85
2023/12/31 13:55:46;;;;;;;8.27;3.80;;;;;;;;;;6131114;23;20097;-86
2023/12/31 13:58:15;;;;;;;8.73;3.85;;;;;;;;;;6131624;23;20029;-87
2023/12/31 14:00:50;;;;;;;7.32;5.18;;;;;;;;;;6131011;23;20017;-87
2023/12/31 14:03:24;;;;;;;6.70;3.03;;;;;;;;;;6130089;23;20052;-85
2023/12/31 14:05:54;;;;;;;9.63;4.60;;;;;;;;;;6128162;23;20037;-85
2023/12/31 14:08:22;;;;;;;7.57;3.65;;;;;;;;;;6128021;23;20038;-85
2023/12/31 14:11:06;;;;;;;12.95;6.88;;;;;;;;;;6128203;23;20064;-86
2023/12/31 14:14:01;;;;;;;6.47;3.78;;;;;;;;;;6130330;23;20025;-85
2023/12/31 14:54:56;;;;;;;11.13;5.50;;;;;;;;;;6153659;23;20011;-85
2023/12/31 15:00:17;;;;;;;9.52;4.20;;;;;;;;;;6126555;23;20324;-85
2023/12/31 15:02:50;;;;;;;6.35;3.85;;;;;;;;;;6104617;23;20021;-86
2023/12/31 15:05:34;;;;;;;;;;;;;;;;;;;;;
2023/12/31 15:08:10;;;;;;;11.50;5.30;;;;;;;;;;6125840;23;20064;-84
2023/12/31 15:10:38;;;;;;;9.50;3.83;;;;;;;;;;6102730;23;20025;-83
2023/12/31 15:13:35;;;;;;;9.10;4.45;;;;;;;;;;6106730;23;20026;-84
2023/12/31 15:16:04;;;;;;;;;;;;;;;;;;6104788;23;20024;-84
2023/12/31 15:18:45;;;;;;;8.25;3.50;;;;;;;;;;6127402;23;19920;-83
2023/12/31 15:21:12;;;;;;;10.32;3.33;;;;;;;;;;6128427;23;20139;-83
2023/12/31 15:23:38;;;;;;;7.40;3.63;;;;;;;;;;6127051;23;20022;-85
2023/12/31 15:26:07;;;;;;;5.43;3.08;;;;;;;;;;6129614;23;20037;-85
2023/12/31 15:28:39;;;;;;;12.07;4.00;;;;;;;;;;6143008;23;20021;-85
2023/12/31 15:31:42;;;;;;;;;;;;;;;;;;;;;
2023/12/31 15:34:38;;;;;;;9.60;4.38;;;;;;;;;;6155127;23;20359;-84
2023/12/31 15:37:38;;;;;;;10.38;4.35;;;;;;;;;;6079078;23;20025;-83
2023/12/31 15:47:34;;;;;;;13.32;7.95;;;;;;;;;;6094206;23;20027;-84
2023/12/31 15:50:23;;;;;;;14.27;7.35;;;;;;;;;;6047281;23;20027;-85
2023/12/31 15:52:58;;;;;;;10.52;5.95;;;;;;;;;;6046871;23;20022;-84
2023/12/31 15:59:04;;;;;;;12.88;7.63;;;;;;;;;;6093303;23;20477;-84
2023/12/31 16:01:30;;;;;;;11.45;5.68;;;;;;;;;;6039248;23;20025;-83
2023/12/31 16:03:56;;;;;;;12.15;7.07;;;;;;;;;;6017927;23;20031;-85
2023/12/31 16:06:29;;;;;;;12.50;4.40;;;;;;;;;;6018815;23;20026;-83
2023/12/31 16:09:23;;;;;;;10.18;4.13;;;;;;;;;;6122983;23;20425;-84
2023/12/31 16:12:08;;;;;;;14.25;9.10;;;;;;;;;;6101874;23;20555;-83
2023/12/31 16:14:37;;;;;;;10.43;5.50;;;;;;;;;;6095104;23;20379;-85
2023/12/31 16:17:09;;;;;;;15.73;8.75;;;;;;;;;;6102925;23;20061;-84
2023/12/31 16:19:38;;;;;;;11.35;6.72;;;;;;;;;;6103475;23;20025;-83
2023/12/31 16:22:16;;;;;;;14.55;8.20;;;;;;;;;;6104033;23;20104;-84
2023/12/31 16:25:08;;;;;;;22.75;11.82;;;;;;;;;;6065407;23;20030;-84
2023/12/31 16:28:24;;;;;;;18.80;12.50;;;;;;;;;;6042745;23;20022;-83
2023/12/31 16:31:49;;;;;;;23.27;16.50;;;;;;;;;;5980334;24;20027;-84
2023/12/31 16:38:10;;;;;;;14.57;8.68;;;;;;;;;;5898215;24;20089;-85
2023/12/31 16:40:43;;;;;;;16.33;10.00;;;;;;;;;;6013846;23;20034;-85
2023/12/31 16:44:03;;;;;;;21.60;13.35;;;;;;;;;;6047215;23;20356;-82
2023/12/31 16:46:31;;;;;;;15.75;7.95;;;;;;;;;;6097857;23;20060;-83
2023/12/31 16:49:11;;;;;;;10.35;4.90;;;;;;;;;;6074468;23;20578;-86
2023/12/31 16:52:06;;;;;;;14.50;9.63;;;;;;;;;;6075337;23;20030;-86
2023/12/31 16:54:35;;;;;;;9.90;5.85;;;;;;;;;;5961960;23;20465;-87
2023/12/31 16:57:24;;;;;;;11.52;7.78;;;;;;;;;;5961910;23;20028;-83
2023/12/31 16:59:59;;;;;;;10.15;6.45;;;;;;;;;;5963522;23;20407;-85
2023/12/31 17:02:27;;;;;;;21.58;12.10;;;;;;;;;;5961874;23;20027;-84
2023/12/31 17:05:10;;;;;;;21.92;14.00;;;;;;;;;;5982329;23;20026;-83
2023/12/31 17:07:44;;;;;;;26.17;18.92;;;;;;;;;;6031429;23;20025;-84
2023/12/31 17:10:13;;;;;;;31.58;23.70;;;;;;;;;;6133748;23;20350;-86
2023/12/31 17:19:10;;;;;;;10.20;7.15;;;;;;;;;;6036856;23;20075;-84
2023/12/31 17:31:52;;;;;;;9.95;5.15;;;;;;;;;;6008804;23;20027;-84
2023/12/31 17:34:49;;;;;;;13.77;6.78;;;;;;;;;;6045117;23;20463;-84
2023/12/31 17:37:49;;;;;;;14.65;10.18;;;;;;;;;;6074444;23;20026;-84
2023/12/31 17:40:33;;;;;;;19.30;12.50;;;;;;;;;;6070776;23;20022;-84
2023/12/31 18:17:48;;;;;;;12.60;5.80;;;;;;;;;;5951781;24;20028;-85
2023/12/31 18:20:17;;;;;;;15.88;9.55;;;;;;;;;;5927613;23;20023;-84
2023/12/31 18:22:46;;;;;;;12.88;6.95;;;;;;;;;;6016590;23;20026;-84
2023/12/31 18:25:17;;;;;;;16.52;8.65;;;;;;;;;;6128507;23;20017;-84
2023/12/31 18:42:10;;;;;;;17.65;8.57;;;;;;;;;;6210907;23;20028;-84
2023/12/31 18:44:50;;;;;;;55.55;35.08;;;;;;;;;;6166571;23;20079;-84
2023/12/31 18:47:22;;;;;;;25.35;14.20;;;;;;;;;;6164373;23;20170;-84
2023/12/31 18:49:53;;;;;;;28.13;15.77;;;;;;;;;;6163532;23;20025;-84
2023/12/31 18:52:25;;;;;;;24.02;11.95;;;;;;;;;;6164269;23;20390;-84
2023/12/31 18:55:09;;;;;;;24.00;14.70;;;;;;;;;;6165474;23;20450;-85
2023/12/31 18:57:51;;;;;;;22.98;15.02;;;;;;;;;;6165325;23;20400;-84
2023/12/31 19:00:28;;;;;;;30.15;16.23;;;;;;;;;;6164339;23;20029;-84
2023/12/31 19:02:54;;;;;;;22.58;12.77;;;;;;;;;;6163634;23;20033;-85
2023/12/31 19:05:20;;;;;;;25.02;13.15;;;;;;;;;;6164238;23;20017;-84
2023/12/31 19:07:50;;;;;;;23.85;13.23;;;;;;;;;;6165246;23;20053;-85
2023/12/31 19:10:16;;;;;;;33.15;15.35;;;;;;;;;;6164426;23;20063;-85
2023/12/31 19:12:43;;;;;;;26.88;13.48;;;;;;;;;;6164711;23;20017;-84
2023/12/31 19:15:09;;;;;;;26.48;11.93;;;;;;;;;;6189905;23;20171;-84
2023/12/31 19:17:40;;;;;;;21.20;11.02;;;;;;;;;;6164188;23;20021;-84
2023/12/31 19:23:10;;;;;;;22.05;11.32;;;;;;;;;;6172594;23;20174;-84
2023/12/31 19:26:13;;;;;;;25.15;14.48;;;;;;;;;;6162885;23;20021;-84
2023/12/31 19:28:55;;;;;;;27.67;14.30;;;;;;;;;;6164124;23;20062;-84
2023/12/31 19:37:59;;;;;;;34.22;19.10;;;;;;;;;;6173527;23;20032;-84
2023/12/31 19:41:23;;;;;;;54.75;36.22;;;;;;;;;;6154871;23;20106;-84
2023/12/31 19:43:52;;;;;;;28.00;12.45;;;;;;;;;;6186944;23;20453;-84
2023/12/31 19:46:34;;;;;;;22.92;12.48;;;;;;;;;;6164161;23;20024;-84
2023/12/31 19:49:06;;;;;;;22.63;15.50;;;;;;;;;;6164425;23;20028;-84
2023/12/31 19:51:57;;;;;;;;;;;;;;;;;;6192108;23;20024;-84
2023/12/31 19:55:08;;;;;;;26.90;15.02;;;;;;;;;;6166367;23;20317;-84
2023/12/31 19:57:59;;;;;;;64.60;43.95;;;;;;;;;;6046584;23;20023;-84
2023/12/31 20:00:54;;;;;;;27.65;15.27;;;;;;;;;;6044054;23;20081;-84
2023/12/31 20:03:44;;;;;;;29.60;18.77;;;;;;;;;;6166441;23;20024;-84
2023/12/31 20:06:28;;;;;;;24.38;13.68;;;;;;;;;;6167225;23;20040;-84
2023/12/31 20:09:11;;;;;;;27.88;14.82;;;;;;;;;;6163310;23;20020;-84
2023/12/31 20:11:44;;;;;;;32.30;19.58;;;;;;;;;;6165845;23;20079;-84
2023/12/31 20:14:17;;;;;;;30.00;14.07;;;;;;;;;;6165042;23;20066;-84
2023/12/31 20:17:10;;;;;;;31.35;19.85;;;;;;;;;;6168364;23;20023;-83
2023/12/31 20:19:49;;;;;;;33.17;19.67;;;;;;;;;;6190354;23;20021;-83
2023/12/31 20:22:15;;;;;;;33.85;19.40;;;;;;;;;;6164835;23;20449;-83
2023/12/31 20:25:17;;;;;;;;;;;;;;;;;;;;;
2023/12/31 20:28:19;;;;;;;;;;;;;;;;;;;;;
2023/12/31 20:31:04;;;;;;;;;;;;;;;;;;;;;
2023/12/31 20:34:52;;;;;;;;;;;;;;;;;;;;;
